sensor_id;sensor_type;location;lat;lon;timestamp;pressure;altitude;pressure_sealevel;temperature;humidity
5609;BME280;2826;51.354;9.588;2023-04-19T00:00:40;99125.31;;;11.75;74.75
5609;BME280;2826;51.354;9.588;2023-04-19T00:03:10;99120.97;;;11.75;74.25
5609;BME280;2826;51.354;9.588;2023-04-19T00:05:36;99117.72;;;11.69;73.75
5609;BME280;2826;51.354;9.588;2023-04-19T00:08:04;99104.81;;;11.66;73.63
5609;BME280;2826;51.354;9.588;2023-04-19T00:10:32;99100.44;;;11.68;73.45
5609;BME280;2826;51.354;9.588;2023-04-19T00:13:00;99098.91;;;11.60;72.76
5609;BME280;2826;51.354;9.588;2023-04-19T00:15:27;99094.78;;;11.52;71.89
5609;BME280;2826;51.354;9.588;2023-04-19T00:17:53;99086.97;;;11.53;71.83
5609;BME280;2826;51.354;9.588;2023-04-19T00:20:20;99085.22;;;11.54;71.13
5609;BME280;2826;51.354;9.588;2023-04-19T00:22:47;99089.53;;;11.55;70.98
5609;BME280;2826;51.354;9.588;2023-04-19T00:25:14;99086.13;;;11.53;71.29
5609;BME280;2826;51.354;9.588;2023-04-19T00:27:41;99086.22;;;11.49;71.53
5609;BME280;2826;51.354;9.588;2023-04-19T00:30:08;99094.91;;;11.48;71.76
5609;BME280;2826;51.354;9.588;2023-04-19T00:32:35;99095.88;;;11.44;71.43
5609;BME280;2826;51.354;9.588;2023-04-19T00:35:01;99093.31;;;11.43;72.12
5609;BME280;2826;51.354;9.588;2023-04-19T00:37:30;99086.63;;;11.34;71.94
5609;BME280;2826;51.354;9.588;2023-04-19T00:39:57;99082.19;;;11.39;71.85
5609;BME280;2826;51.354;9.588;2023-04-19T00:42:26;99089.31;;;11.32;71.27
5609;BME280;2826;51.354;9.588;2023-04-19T00:44:52;99091.06;;;11.30;71.19
5609;BME280;2826;51.354;9.588;2023-04-19T00:47:18;99092.75;;;11.31;70.92
5609;BME280;2826;51.354;9.588;2023-04-19T00:49:45;99090.25;;;11.30;70.70
5609;BME280;2826;51.354;9.588;2023-04-19T00:52:12;99083.44;;;11.26;70.95
5609;BME280;2826;51.354;9.588;2023-04-19T00:54:42;99087.81;;;11.22;70.80
5609;BME280;2826;51.354;9.588;2023-04-19T00:57:12;99089.72;;;11.17;70.85
5609;BME280;2826;51.354;9.588;2023-04-19T00:59:39;99084.56;;;11.15;71.04
5609;BME280;2826;51.354;9.588;2023-04-19T01:02:07;99083.19;;;11.02;71.08
5609;BME280;2826;51.354;9.588;2023-04-19T01:04:34;99079.06;;;10.94;71.12
5609;BME280;2826;51.354;9.588;2023-04-19T01:07:01;99067.81;;;10.94;70.43
5609;BME280;2826;51.354;9.588;2023-04-19T01:09:28;99065.13;;;10.98;70.53
5609;BME280;2826;51.354;9.588;2023-04-19T01:11:56;99054.56;;;11.05;70.16
5609;BME280;2826;51.354;9.588;2023-04-19T01:14:23;99052.88;;;11.04;69.47
5609;BME280;2826;51.354;9.588;2023-04-19T01:16:50;99046.84;;;11.02;69.30
5609;BME280;2826;51.354;9.588;2023-04-19T01:19:18;99045.94;;;11.03;68.87
5609;BME280;2826;51.354;9.588;2023-04-19T01:21:44;99044.25;;;11.02;68.56
5609;BME280;2826;51.354;9.588;2023-04-19T01:24:11;99043.50;;;10.98;68.19
5609;BME280;2826;51.354;9.588;2023-04-19T01:26:38;99041.94;;;10.91;67.98
5609;BME280;2826;51.354;9.588;2023-04-19T01:29:05;99041.00;;;10.93;66.71
5609;BME280;2826;51.354;9.588;2023-04-19T01:31:31;99048.06;;;10.88;66.45
5609;BME280;2826;51.354;9.588;2023-04-19T01:33:58;99045.69;;;10.80;66.40
5609;BME280;2826;51.354;9.588;2023-04-19T01:36:24;99041.22;;;10.85;65.89
5609;BME280;2826;51.354;9.588;2023-04-19T01:38:52;99043.69;;;10.92;65.79
5609;BME280;2826;51.354;9.588;2023-04-19T01:41:19;99052.19;;;10.97;65.28
5609;BME280;2826;51.354;9.588;2023-04-19T01:43:47;99051.59;;;10.85;65.55
5609;BME280;2826;51.354;9.588;2023-04-19T01:46:14;99049.00;;;10.85;65.30
5609;BME280;2826;51.354;9.588;2023-04-19T01:48:40;99059.53;;;10.81;65.64
5609;BME280;2826;51.354;9.588;2023-04-19T01:51:06;99052.75;;;10.75;65.54
5609;BME280;2826;51.354;9.588;2023-04-19T01:53:34;99053.78;;;10.68;65.91
5609;BME280;2826;51.354;9.588;2023-04-19T01:56:00;99057.34;;;10.64;65.85
5609;BME280;2826;51.354;9.588;2023-04-19T01:58:27;99062.44;;;10.68;65.96
5609;BME280;2826;51.354;9.588;2023-04-19T02:00:54;99060.53;;;10.75;65.34
5609;BME280;2826;51.354;9.588;2023-04-19T02:03:20;99066.75;;;10.68;65.36
5609;BME280;2826;51.354;9.588;2023-04-19T02:05:48;99064.19;;;10.66;65.78
5609;BME280;2826;51.354;9.588;2023-04-19T02:08:15;99059.13;;;10.63;65.76
5609;BME280;2826;51.354;9.588;2023-04-19T02:10:41;99056.41;;;10.66;65.69
5609;BME280;2826;51.354;9.588;2023-04-19T02:13:08;99052.13;;;10.65;65.97
5609;BME280;2826;51.354;9.588;2023-04-19T02:15:36;99047.19;;;10.56;66.75
5609;BME280;2826;51.354;9.588;2023-04-19T02:18:03;99054.97;;;10.56;66.44
5609;BME280;2826;51.354;9.588;2023-04-19T02:20:31;99051.41;;;10.60;66.45
5609;BME280;2826;51.354;9.588;2023-04-19T02:22:58;99013.06;;;10.35;66.65
5609;BME280;2826;51.354;9.588;2023-04-19T02:25:26;99048.97;;;10.54;66.68
5609;BME280;2826;51.354;9.588;2023-04-19T02:27:53;99045.53;;;10.53;67.11
5609;BME280;2826;51.354;9.588;2023-04-19T02:30:20;99043.81;;;10.52;67.25
5609;BME280;2826;51.354;9.588;2023-04-19T02:32:47;99050.66;;;10.55;66.89
5609;BME280;2826;51.354;9.588;2023-04-19T02:35:14;99042.75;;;10.59;66.81
5609;BME280;2826;51.354;9.588;2023-04-19T02:37:42;99043.63;;;10.60;66.33
5609;BME280;2826;51.354;9.588;2023-04-19T02:40:09;99036.78;;;10.57;66.90
5609;BME280;2826;51.354;9.588;2023-04-19T02:42:35;99037.69;;;10.55;66.77
5609;BME280;2826;51.354;9.588;2023-04-19T02:45:02;99042.09;;;10.51;66.35
5609;BME280;2826;51.354;9.588;2023-04-19T02:47:29;99042.88;;;10.55;66.12
5609;BME280;2826;51.354;9.588;2023-04-19T02:49:56;99046.50;;;10.48;65.69
5609;BME280;2826;51.354;9.588;2023-04-19T02:52:25;99033.09;;;10.30;65.40
5609;BME280;2826;51.354;9.588;2023-04-19T02:54:52;99046.94;;;10.29;65.32
5609;BME280;2826;51.354;9.588;2023-04-19T02:57:18;99047.91;;;10.25;65.27
5609;BME280;2826;51.354;9.588;2023-04-19T02:59:45;99061.97;;;10.14;65.20
5609;BME280;2826;51.354;9.588;2023-04-19T03:02:11;99063.84;;;10.09;65.11
5609;BME280;2826;51.354;9.588;2023-04-19T03:04:39;99052.59;;;10.09;65.19
5609;BME280;2826;51.354;9.588;2023-04-19T03:07:08;99059.41;;;10.14;65.25
5609;BME280;2826;51.354;9.588;2023-04-19T03:09:36;99049.94;;;10.12;65.47
5609;BME280;2826;51.354;9.588;2023-04-19T03:12:03;99050.03;;;10.07;65.39
5609;BME280;2826;51.354;9.588;2023-04-19T03:14:30;99049.50;;;9.94;65.56
5609;BME280;2826;51.354;9.588;2023-04-19T03:16:58;99049.59;;;9.89;65.77
5609;BME280;2826;51.354;9.588;2023-04-19T03:19:25;99022.31;;;9.73;65.77
5609;BME280;2826;51.354;9.588;2023-04-19T03:21:52;99052.53;;;9.74;65.70
5609;BME280;2826;51.354;9.588;2023-04-19T03:24:26;99049.69;;;9.85;64.93
5609;BME280;2826;51.354;9.588;2023-04-19T03:26:55;99047.50;;;9.66;65.54
5609;BME280;2826;51.354;9.588;2023-04-19T03:29:26;99043.41;;;9.56;65.09
5609;BME280;2826;51.354;9.588;2023-04-19T03:31:59;99043.41;;;9.56;64.86
5609;BME280;2826;51.354;9.588;2023-04-19T03:34:27;99043.75;;;9.40;64.17
5609;BME280;2826;51.354;9.588;2023-04-19T03:36:56;99030.94;;;9.32;63.83
5609;BME280;2826;51.354;9.588;2023-04-19T03:39:24;99029.28;;;9.30;64.16
5609;BME280;2826;51.354;9.588;2023-04-19T03:41:56;99028.53;;;9.23;63.99
5609;BME280;2826;51.354;9.588;2023-04-19T03:44:49;99023.53;;;9.15;63.33
5609;BME280;2826;51.354;9.588;2023-04-19T03:47:17;99011.66;;;9.06;62.20
5609;BME280;2826;51.354;9.588;2023-04-19T03:49:47;99013.44;;;9.01;61.33
5609;BME280;2826;51.354;9.588;2023-04-19T03:52:14;99019.44;;;9.05;61.17
5609;BME280;2826;51.354;9.588;2023-04-19T03:54:40;99027.16;;;9.06;60.48
5609;BME280;2826;51.354;9.588;2023-04-19T03:57:18;99028.22;;;8.94;60.13
5609;BME280;2826;51.354;9.588;2023-04-19T03:59:48;99032.47;;;8.98;59.81
5609;BME280;2826;51.354;9.588;2023-04-19T04:02:14;99037.91;;;8.84;58.47
5609;BME280;2826;51.354;9.588;2023-04-19T04:04:42;99039.00;;;8.72;58.82
5609;BME280;2826;51.354;9.588;2023-04-19T04:07:09;99033.19;;;8.59;58.55
5609;BME280;2826;51.354;9.588;2023-04-19T04:09:36;98993.97;;;8.34;59.01
5609;BME280;2826;51.354;9.588;2023-04-19T04:12:02;99032.41;;;8.54;58.99
5609;BME280;2826;51.354;9.588;2023-04-19T04:14:31;99022.22;;;8.43;59.22
5609;BME280;2826;51.354;9.588;2023-04-19T04:16:58;99028.34;;;8.37;59.38
5609;BME280;2826;51.354;9.588;2023-04-19T04:19:24;99036.22;;;8.31;59.35
5609;BME280;2826;51.354;9.588;2023-04-19T04:21:51;99036.38;;;8.22;58.88
5609;BME280;2826;51.354;9.588;2023-04-19T04:24:19;99031.28;;;8.14;59.05
5609;BME280;2826;51.354;9.588;2023-04-19T04:27:00;99035.66;;;8.12;59.02
5609;BME280;2826;51.354;9.588;2023-04-19T04:29:32;99042.59;;;8.10;58.81
5609;BME280;2826;51.354;9.588;2023-04-19T04:32:02;99037.50;;;8.02;58.65
5609;BME280;2826;51.354;9.588;2023-04-19T04:34:37;99038.44;;;7.98;58.87
5609;BME280;2826;51.354;9.588;2023-04-19T04:37:11;99026.38;;;8.00;58.96
5609;BME280;2826;51.354;9.588;2023-04-19T04:39:39;99034.13;;;7.98;58.83
5609;BME280;2826;51.354;9.588;2023-04-19T04:42:08;99037.59;;;7.97;59.06
5609;BME280;2826;51.354;9.588;2023-04-19T04:44:35;99015.59;;;7.70;59.22
5609;BME280;2826;51.354;9.588;2023-04-19T04:47:05;99068.72;;;7.88;59.38
5609;BME280;2826;51.354;9.588;2023-04-19T04:49:39;99053.38;;;7.77;59.46
5609;BME280;2826;51.354;9.588;2023-04-19T04:52:06;99058.44;;;7.83;59.66
5609;BME280;2826;51.354;9.588;2023-04-19T04:54:40;99061.94;;;7.81;59.16
5609;BME280;2826;51.354;9.588;2023-04-19T04:57:18;99055.91;;;7.80;59.12
5609;BME280;2826;51.354;9.588;2023-04-19T04:59:46;99051.75;;;7.68;59.84
5609;BME280;2826;51.354;9.588;2023-04-19T05:02:13;99057.81;;;7.66;59.70
5609;BME280;2826;51.354;9.588;2023-04-19T05:04:40;99064.72;;;7.65;59.84
5609;BME280;2826;51.354;9.588;2023-04-19T05:07:09;99048.41;;;7.63;59.60
5609;BME280;2826;51.354;9.588;2023-04-19T05:09:36;99057.69;;;7.75;59.10
5609;BME280;2826;51.354;9.588;2023-04-19T05:12:04;99062.81;;;7.78;59.26
5609;BME280;2826;51.354;9.588;2023-04-19T05:14:31;99063.63;;;7.83;58.90
5609;BME280;2826;51.354;9.588;2023-04-19T05:16:58;99070.47;;;7.84;58.87
5609;BME280;2826;51.354;9.588;2023-04-19T05:19:27;99066.16;;;7.88;59.01
5609;BME280;2826;51.354;9.588;2023-04-19T05:22:00;99072.28;;;7.78;59.51
5609;BME280;2826;51.354;9.588;2023-04-19T05:24:28;99061.06;;;7.80;59.31
5609;BME280;2826;51.354;9.588;2023-04-19T05:26:55;99059.47;;;7.71;59.21
5609;BME280;2826;51.354;9.588;2023-04-19T05:29:23;99069.72;;;7.78;58.78
5609;BME280;2826;51.354;9.588;2023-04-19T05:31:53;99068.00;;;7.78;59.22
5609;BME280;2826;51.354;9.588;2023-04-19T05:34:25;99062.94;;;7.72;58.98
5609;BME280;2826;51.354;9.588;2023-04-19T05:36:54;99064.59;;;7.76;59.26
5609;BME280;2826;51.354;9.588;2023-04-19T05:39:22;99068.94;;;7.71;59.36
5609;BME280;2826;51.354;9.588;2023-04-19T05:41:48;99064.66;;;7.68;59.60
5609;BME280;2826;51.354;9.588;2023-04-19T05:44:15;99065.53;;;7.70;59.17
5609;BME280;2826;51.354;9.588;2023-04-19T05:46:42;99056.91;;;7.70;59.41
5609;BME280;2826;51.354;9.588;2023-04-19T05:49:12;99055.91;;;7.80;58.79
5609;BME280;2826;51.354;9.588;2023-04-19T05:52:00;99061.13;;;7.77;58.30
5609;BME280;2826;51.354;9.588;2023-04-19T05:54:46;99053.44;;;7.72;57.50
5609;BME280;2826;51.354;9.588;2023-04-19T05:57:13;99057.75;;;7.72;57.65
5609;BME280;2826;51.354;9.588;2023-04-19T05:59:41;99059.50;;;7.70;57.18
5609;BME280;2826;51.354;9.588;2023-04-19T06:02:08;99052.59;;;7.72;57.78
5609;BME280;2826;51.354;9.588;2023-04-19T06:04:36;99058.63;;;7.69;56.77
5609;BME280;2826;51.354;9.588;2023-04-19T06:07:05;99050.88;;;7.69;56.89
5609;BME280;2826;51.354;9.588;2023-04-19T06:09:33;99059.38;;;7.79;56.01
5609;BME280;2826;51.354;9.588;2023-04-19T06:12:00;99062.81;;;7.80;56.13
5609;BME280;2826;51.354;9.588;2023-04-19T06:14:29;99054.22;;;7.78;56.29
5609;BME280;2826;51.354;9.588;2023-04-19T06:16:57;99059.47;;;7.73;56.46
5609;BME280;2826;51.354;9.588;2023-04-19T06:19:25;99059.19;;;7.92;56.21
5609;BME280;2826;51.354;9.588;2023-04-19T06:21:53;99057.44;;;7.94;56.37
5609;BME280;2826;51.354;9.588;2023-04-19T06:24:21;99056.56;;;7.96;56.11
5609;BME280;2826;51.354;9.588;2023-04-19T06:26:48;99060.69;;;8.08;56.21
5609;BME280;2826;51.354;9.588;2023-04-19T06:29:15;99071.72;;;8.18;56.04
5609;BME280;2826;51.354;9.588;2023-04-19T06:31:43;99071.63;;;8.26;56.21
5609;BME280;2826;51.354;9.588;2023-04-19T06:34:11;99026.22;;;8.09;55.98
5609;BME280;2826;51.354;9.588;2023-04-19T06:36:39;99064.63;;;8.31;55.47
5609;BME280;2826;51.354;9.588;2023-04-19T06:39:08;99067.22;;;8.31;55.22
5609;BME280;2826;51.354;9.588;2023-04-19T06:41:36;99066.97;;;8.45;54.86
5609;BME280;2826;51.354;9.588;2023-04-19T06:44:05;99065.16;;;8.52;54.39
5609;BME280;2826;51.354;9.588;2023-04-19T06:46:33;99033.50;;;8.39;54.24
5609;BME280;2826;51.354;9.588;2023-04-19T06:49:00;99065.03;;;8.61;54.57
5609;BME280;2826;51.354;9.588;2023-04-19T06:51:29;99070.31;;;8.54;54.40
5609;BME280;2826;51.354;9.588;2023-04-19T06:54:02;99067.63;;;8.61;54.13
5609;BME280;2826;51.354;9.588;2023-04-19T06:56:42;99066.53;;;8.75;53.66
5609;BME280;2826;51.354;9.588;2023-04-19T06:59:12;99067.50;;;8.68;53.77
5609;BME280;2826;51.354;9.588;2023-04-19T07:01:42;99068.25;;;8.76;53.58
5609;BME280;2826;51.354;9.588;2023-04-19T07:04:10;99062.94;;;8.82;53.83
5609;BME280;2826;51.354;9.588;2023-04-19T07:06:38;99068.41;;;8.67;54.16
5609;BME280;2826;51.354;9.588;2023-04-19T07:09:06;99071.47;;;8.87;54.04
5609;BME280;2826;51.354;9.588;2023-04-19T07:11:35;99061.06;;;8.92;53.21
5609;BME280;2826;51.354;9.588;2023-04-19T07:14:04;99067.91;;;8.95;53.22
5609;BME280;2826;51.354;9.588;2023-04-19T07:16:31;99063.38;;;9.06;53.11
5609;BME280;2826;51.354;9.588;2023-04-19T07:18:59;99058.75;;;9.22;52.94
5609;BME280;2826;51.354;9.588;2023-04-19T07:21:25;99061.09;;;9.35;52.81
5609;BME280;2826;51.354;9.588;2023-04-19T07:23:57;99054.81;;;9.47;52.01
5609;BME280;2826;51.354;9.588;2023-04-19T07:26:26;99060.59;;;9.60;51.91
5609;BME280;2826;51.354;9.588;2023-04-19T07:28:54;99066.44;;;9.70;51.27
5609;BME280;2826;51.354;9.588;2023-04-19T07:31:23;99047.44;;;9.69;50.85
5609;BME280;2826;51.354;9.588;2023-04-19T07:33:51;99042.03;;;9.80;51.17
5609;BME280;2826;51.354;9.588;2023-04-19T07:36:19;99049.47;;;9.96;51.96
5609;BME280;2826;51.354;9.588;2023-04-19T07:38:46;99046.72;;;10.02;50.34
5609;BME280;2826;51.354;9.588;2023-04-19T07:41:13;99046.16;;;9.89;50.32
5609;BME280;2826;51.354;9.588;2023-04-19T07:43:40;99052.06;;;9.96;51.34
5609;BME280;2826;51.354;9.588;2023-04-19T07:46:09;99018.38;;;9.96;50.76
5609;BME280;2826;51.354;9.588;2023-04-19T07:48:37;99052.34;;;10.19;49.70
5609;BME280;2826;51.354;9.588;2023-04-19T07:51:09;99056.88;;;10.11;49.62
5609;BME280;2826;51.354;9.588;2023-04-19T07:53:37;99046.31;;;10.19;50.33
5609;BME280;2826;51.354;9.588;2023-04-19T07:56:06;99037.69;;;10.18;49.81
5609;BME280;2826;51.354;9.588;2023-04-19T07:58:34;99040.25;;;10.20;50.16
5609;BME280;2826;51.354;9.588;2023-04-19T08:01:01;99040.75;;;10.35;50.05
5609;BME280;2826;51.354;9.588;2023-04-19T08:03:30;99035.53;;;10.36;49.22
5609;BME280;2826;51.354;9.588;2023-04-19T08:06:00;99032.81;;;10.41;49.02
5609;BME280;2826;51.354;9.588;2023-04-19T08:08:28;99025.22;;;10.69;49.27
5609;BME280;2826;51.354;9.588;2023-04-19T08:10:56;99031.50;;;10.94;48.43
5609;BME280;2826;51.354;9.588;2023-04-19T08:13:23;99039.09;;;11.00;47.90
5609;BME280;2826;51.354;9.588;2023-04-19T08:15:54;99041.88;;;10.94;46.76
5609;BME280;2826;51.354;9.588;2023-04-19T08:18:22;99033.66;;;11.09;47.68
5609;BME280;2826;51.354;9.588;2023-04-19T08:27:58;99028.75;;;11.60;46.84
5609;BME280;2826;51.354;9.588;2023-04-19T08:31:31;99030.41;;;11.63;46.27
5609;BME280;2826;51.354;9.588;2023-04-19T08:35:01;99020.09;;;11.60;45.93
5609;BME280;2826;51.354;9.588;2023-04-19T08:38:30;99025.16;;;11.93;45.37
5609;BME280;2826;51.354;9.588;2023-04-19T08:42:24;99024.59;;;11.83;43.86
5609;BME280;2826;51.354;9.588;2023-04-19T08:49:25;99021.41;;;12.31;44.07
5609;BME280;2826;51.354;9.588;2023-04-19T08:52:43;99015.25;;;12.59;43.46
5609;BME280;2826;51.354;9.588;2023-04-19T08:55:53;99010.09;;;12.57;43.02
5609;BME280;2826;51.354;9.588;2023-04-19T08:59:27;99002.66;;;12.97;42.83
5609;BME280;2826;51.354;9.588;2023-04-19T09:03:17;99001.06;;;12.93;42.28
5609;BME280;2826;51.354;9.588;2023-04-19T09:17:35;98989.06;;;13.13;41.04
5609;BME280;2826;51.354;9.588;2023-04-19T09:21:06;98997.50;;;13.43;38.52
5609;BME280;2826;51.354;9.588;2023-04-19T09:28:26;98991.66;;;13.61;40.45
5609;BME280;2826;51.354;9.588;2023-04-19T09:51:37;98968.09;;;13.64;38.83
5609;BME280;2826;51.354;9.588;2023-04-19T09:55:33;98963.91;;;13.82;38.61
5609;BME280;2826;51.354;9.588;2023-04-19T10:10:01;98930.47;;;14.14;37.41
5609;BME280;2826;51.354;9.588;2023-04-19T10:12:30;98928.88;;;14.31;35.94
5609;BME280;2826;51.354;9.588;2023-04-19T10:14:57;98927.22;;;14.49;36.33
5609;BME280;2826;51.354;9.588;2023-04-19T10:17:25;98918.81;;;14.63;35.98
5609;BME280;2826;51.354;9.588;2023-04-19T10:19:58;98921.72;;;14.55;35.75
5609;BME280;2826;51.354;9.588;2023-04-19T10:22:31;98912.56;;;14.46;35.73
5609;BME280;2826;51.354;9.588;2023-04-19T10:25:10;98913.16;;;14.32;34.75
5609;BME280;2826;51.354;9.588;2023-04-19T10:27:37;98903.34;;;14.18;36.02
5609;BME280;2826;51.354;9.588;2023-04-19T10:30:05;98906.25;;;14.31;35.18
5609;BME280;2826;51.354;9.588;2023-04-19T10:32:38;98900.31;;;14.28;35.93
5609;BME280;2826;51.354;9.588;2023-04-19T10:35:09;98897.91;;;14.23;35.63
5609;BME280;2826;51.354;9.588;2023-04-19T10:37:39;98899.75;;;14.21;37.63
5609;BME280;2826;51.354;9.588;2023-04-19T10:40:08;98900.81;;;14.36;37.08
5609;BME280;2826;51.354;9.588;2023-04-19T10:45:47;98887.41;;;14.24;35.43
5609;BME280;2826;51.354;9.588;2023-04-19T10:48:36;98862.59;;;13.95;36.05
5609;BME280;2826;51.354;9.588;2023-04-19T10:51:14;98886.19;;;14.13;37.53
5609;BME280;2826;51.354;9.588;2023-04-19T10:53:54;98880.03;;;14.34;36.80
5609;BME280;2826;51.354;9.588;2023-04-19T10:59:29;98879.28;;;14.52;36.07
5609;BME280;2826;51.354;9.588;2023-04-19T11:01:58;98869.41;;;14.58;37.11
5609;BME280;2826;51.354;9.588;2023-04-19T11:04:57;98866.91;;;14.76;37.16
5609;BME280;2826;51.354;9.588;2023-04-19T11:07:25;98871.06;;;14.40;36.55
5609;BME280;2826;51.354;9.588;2023-04-19T11:09:52;98856.81;;;14.28;36.49
5609;BME280;2826;51.354;9.588;2023-04-19T11:12:20;98869.44;;;14.37;36.98
5609;BME280;2826;51.354;9.588;2023-04-19T11:14:50;98854.03;;;14.52;37.29
5609;BME280;2826;51.354;9.588;2023-04-19T11:17:19;98856.50;;;14.55;37.06
5609;BME280;2826;51.354;9.588;2023-04-19T11:19:54;98825.53;;;14.47;35.32
5609;BME280;2826;51.354;9.588;2023-04-19T11:22:33;98853.69;;;14.60;36.64
5609;BME280;2826;51.354;9.588;2023-04-19T11:25:04;98814.59;;;13.99;35.14
5609;BME280;2826;51.354;9.588;2023-04-19T11:27:33;98842.41;;;14.19;36.55
5609;BME280;2826;51.354;9.588;2023-04-19T11:30:04;98840.78;;;14.17;35.32
5609;BME280;2826;51.354;9.588;2023-04-19T11:32:31;98840.63;;;14.20;36.51
5609;BME280;2826;51.354;9.588;2023-04-19T11:35:03;98850.78;;;14.47;36.97
5609;BME280;2826;51.354;9.588;2023-04-19T11:37:32;98838.16;;;14.57;36.19
5609;BME280;2826;51.354;9.588;2023-04-19T11:39:59;98825.09;;;14.78;35.89
5609;BME280;2826;51.354;9.588;2023-04-19T11:42:26;98831.13;;;14.78;34.19
5609;BME280;2826;51.354;9.588;2023-04-19T11:44:54;98824.97;;;14.41;36.02
5609;BME280;2826;51.354;9.588;2023-04-19T11:47:22;98825.81;;;14.60;36.10
5609;BME280;2826;51.354;9.588;2023-04-19T11:49:50;98818.41;;;14.70;35.96
5609;BME280;2826;51.354;9.588;2023-04-19T11:52:21;98821.34;;;14.83;35.01
5609;BME280;2826;51.354;9.588;2023-04-19T11:54:49;98816.31;;;14.98;34.52
5609;BME280;2826;51.354;9.588;2023-04-19T11:57:26;98795.53;;;15.32;34.54
5609;BME280;2826;51.354;9.588;2023-04-19T12:00:06;98810.97;;;15.19;33.84
5609;BME280;2826;51.354;9.588;2023-04-19T12:02:40;98802.47;;;15.50;34.36
5609;BME280;2826;51.354;9.588;2023-04-19T12:50:31;98797.59;;;16.13;28.13
5609;BME280;2826;51.354;9.588;2023-04-19T12:52:58;98779.53;;;16.25;27.84
5609;BME280;2826;51.354;9.588;2023-04-19T12:55:24;98776.28;;;16.37;27.43
5609;BME280;2826;51.354;9.588;2023-04-19T12:57:51;98776.09;;;16.24;26.83
5609;BME280;2826;51.354;9.588;2023-04-19T13:00:18;98787.81;;;16.17;27.87
5609;BME280;2826;51.354;9.588;2023-04-19T13:02:45;98788.75;;;16.32;27.62
5609;BME280;2826;51.354;9.588;2023-04-19T13:05:13;98784.41;;;16.65;27.07
5609;BME280;2826;51.354;9.588;2023-04-19T13:07:41;98776.63;;;16.47;27.12
5609;BME280;2826;51.354;9.588;2023-04-19T13:10:08;98768.56;;;16.34;26.77
5609;BME280;2826;51.354;9.588;2023-04-19T13:12:35;98720.50;;;16.03;27.55
5609;BME280;2826;51.354;9.588;2023-04-19T13:15:02;98766.16;;;16.47;28.00
5609;BME280;2826;51.354;9.588;2023-04-19T13:17:29;98762.59;;;16.80;27.65
5609;BME280;2826;51.354;9.588;2023-04-19T13:19:56;98744.09;;;17.30;27.82
5609;BME280;2826;51.354;9.588;2023-04-19T13:22:22;98743.44;;;17.72;28.25
5609;BME280;2826;51.354;9.588;2023-04-19T13:24:50;98749.66;;;17.40;27.52
5609;BME280;2826;51.354;9.588;2023-04-19T13:27:17;98756.00;;;16.73;27.88
5609;BME280;2826;51.354;9.588;2023-04-19T13:29:45;98753.66;;;16.36;29.38
5609;BME280;2826;51.354;9.588;2023-04-19T13:32:12;98748.34;;;16.54;30.04
5609;BME280;2826;51.354;9.588;2023-04-19T13:34:38;98753.19;;;16.92;30.43
5609;BME280;2826;51.354;9.588;2023-04-19T13:37:05;98732.03;;;17.42;28.88
5609;BME280;2826;51.354;9.588;2023-04-19T13:39:33;98736.19;;;17.16;27.59
5609;BME280;2826;51.354;9.588;2023-04-19T13:42:01;98749.59;;;16.30;29.06
5609;BME280;2826;51.354;9.588;2023-04-19T13:44:28;98733.97;;;15.26;28.38
5609;BME280;2826;51.354;9.588;2023-04-19T13:46:55;98724.47;;;15.07;30.14
5609;BME280;2826;51.354;9.588;2023-04-19T13:49:22;98721.13;;;15.39;30.90
5609;BME280;2826;51.354;9.588;2023-04-19T13:51:48;98719.44;;;15.89;30.29
5609;BME280;2826;51.354;9.588;2023-04-19T13:54:15;98721.16;;;16.24;29.29
5609;BME280;2826;51.354;9.588;2023-04-19T13:56:42;98716.81;;;16.07;29.88
5609;BME280;2826;51.354;9.588;2023-04-19T13:59:11;98711.84;;;15.85;29.59
5609;BME280;2826;51.354;9.588;2023-04-19T14:01:39;98701.44;;;15.67;29.31
5609;BME280;2826;51.354;9.588;2023-04-19T14:04:06;98696.84;;;15.54;28.00
5609;BME280;2826;51.354;9.588;2023-04-19T14:06:33;98691.00;;;15.49;27.37
5609;BME280;2826;51.354;9.588;2023-04-19T14:08:59;98690.13;;;15.15;26.95
5609;BME280;2826;51.354;9.588;2023-04-19T14:11:26;98693.94;;;15.25;27.45
5609;BME280;2826;51.354;9.588;2023-04-19T14:13:54;98685.81;;;15.14;27.10
5609;BME280;2826;51.354;9.588;2023-04-19T14:16:22;98685.66;;;14.99;26.79
5609;BME280;2826;51.354;9.588;2023-04-19T14:18:49;98682.06;;;15.02;27.55
5609;BME280;2826;51.354;9.588;2023-04-19T14:21:16;98680.13;;;14.69;27.38
5609;BME280;2826;51.354;9.588;2023-04-19T14:23:42;98684.44;;;14.52;28.72
5609;BME280;2826;51.354;9.588;2023-04-19T14:26:09;98685.75;;;14.42;28.44
5609;BME280;2826;51.354;9.588;2023-04-19T14:28:36;98672.91;;;14.93;28.92
5609;BME280;2826;51.354;9.588;2023-04-19T14:31:03;98669.81;;;15.72;28.19
5609;BME280;2826;51.354;9.588;2023-04-19T14:33:30;98670.72;;;16.53;28.28
5609;BME280;2826;51.354;9.588;2023-04-19T14:35:57;98670.88;;;16.96;27.00
5609;BME280;2826;51.354;9.588;2023-04-19T14:38:24;98660.56;;;16.93;25.20
5609;BME280;2826;51.354;9.588;2023-04-19T14:40:51;98662.69;;;16.56;26.55
5609;BME280;2826;51.354;9.588;2023-04-19T14:43:17;98667.09;;;16.23;27.47
5609;BME280;2826;51.354;9.588;2023-04-19T14:45:46;98682.13;;;15.70;26.75
5609;BME280;2826;51.354;9.588;2023-04-19T14:48:13;98679.72;;;15.49;26.99
5609;BME280;2826;51.354;9.588;2023-04-19T14:50:41;98672.94;;;15.45;27.92
5609;BME280;2826;51.354;9.588;2023-04-19T14:53:08;98670.53;;;15.24;27.85
5609;BME280;2826;51.354;9.588;2023-04-19T14:55:35;98664.91;;;15.65;27.98
5609;BME280;2826;51.354;9.588;2023-04-19T14:58:02;98671.25;;;15.95;27.89
5609;BME280;2826;51.354;9.588;2023-04-19T15:00:29;98669.56;;;15.94;27.11
5609;BME280;2826;51.354;9.588;2023-04-19T15:02:55;98674.06;;;15.90;27.14
5609;BME280;2826;51.354;9.588;2023-04-19T15:05:24;98660.13;;;16.24;27.48
5609;BME280;2826;51.354;9.588;2023-04-19T15:07:53;98649.88;;;16.51;26.60
5609;BME280;2826;51.354;9.588;2023-04-19T15:10:19;98649.63;;;16.40;26.99
5609;BME280;2826;51.354;9.588;2023-04-19T15:12:46;98656.13;;;16.00;27.86
5609;BME280;2826;51.354;9.588;2023-04-19T15:15:13;98645.56;;;15.86;28.37
5609;BME280;2826;51.354;9.588;2023-04-19T15:17:40;98651.00;;;15.81;27.82
5609;BME280;2826;51.354;9.588;2023-04-19T15:20:07;98646.97;;;15.59;27.83
5609;BME280;2826;51.354;9.588;2023-04-19T15:22:34;98649.84;;;15.37;28.45
5609;BME280;2826;51.354;9.588;2023-04-19T15:25:03;98664.06;;;15.13;28.44
5609;BME280;2826;51.354;9.588;2023-04-19T15:27:29;98654.41;;;14.80;28.79
5609;BME280;2826;51.354;9.588;2023-04-19T15:29:56;98653.81;;;14.73;29.69
5609;BME280;2826;51.354;9.588;2023-04-19T15:32:23;98644.22;;;14.74;29.51
5609;BME280;2826;51.354;9.588;2023-04-19T15:34:50;98646.50;;;14.82;30.33